createdAt,value
2023-02-26T00:01:44.566Z,97953.03
2023-02-26T00:04:10.943Z,97957.31
2023-02-26T00:06:37.270Z,97964.56
2023-02-26T00:09:03.657Z,97970.47
2023-02-26T00:11:30.174Z,97973.72
2023-02-26T00:13:56.586Z,97970.81
2023-02-26T00:16:23.036Z,97967.34
2023-02-26T00:18:49.439Z,97974.34
2023-02-26T00:21:15.762Z,97966.94
2023-02-26T00:23:42.083Z,97986.19
2023-02-26T00:26:08.550Z,97987.56
2023-02-26T00:28:35.116Z,97982.81
2023-02-26T00:31:01.472Z,97979.88
2023-02-26T00:33:27.892Z,97984.72
2023-02-26T00:35:54.230Z,97992.53
2023-02-26T00:38:20.564Z,97990.13
2023-02-26T00:40:46.966Z,97987.75
2023-02-26T00:43:13.304Z,97996.81
2023-02-26T00:45:39.631Z,98006.22
2023-02-26T00:48:06.006Z,97992.59
2023-02-26T00:50:32.403Z,97994.25
2023-02-26T00:52:58.766Z,97999.53
2023-02-26T00:55:25.521Z,97999.63
2023-02-26T00:57:52.574Z,98001.50
2023-02-26T01:00:18.957Z,97995.09
2023-02-26T01:02:45.392Z,97998.84
2023-02-26T01:05:12.201Z,97993.16
2023-02-26T01:07:38.536Z,97992.38
2023-02-26T01:10:05.312Z,97996.72
2023-02-26T01:12:31.637Z,97995.66
2023-02-26T01:14:57.963Z,97998.34
2023-02-26T01:17:24.332Z,97998.66
2023-02-26T01:19:50.666Z,98000.50
2023-02-26T01:22:17.108Z,98003.78
2023-02-26T01:24:44.095Z,98007.28
2023-02-26T01:27:10.606Z,98003.53
2023-02-26T01:29:37.033Z,98002.00
2023-02-26T01:32:03.929Z,98005.53
2023-02-26T01:34:30.400Z,98008.16
2023-02-26T01:36:56.727Z,98007.88
2023-02-26T01:39:23.154Z,98017.81
2023-02-26T01:41:49.476Z,98015.41
2023-02-26T01:44:15.795Z,98017.34
2023-02-26T01:46:42.530Z,98018.47
2023-02-26T01:49:08.881Z,98035.13
2023-02-26T01:51:35.233Z,98034.91
2023-02-26T01:54:01.646Z,98039.47
2023-02-26T01:56:28.171Z,98041.28
2023-02-26T01:58:54.696Z,98046.44
2023-02-26T02:01:21.693Z,98055.56
2023-02-26T02:03:48.039Z,98051.25
2023-02-26T02:06:14.360Z,98055.34
2023-02-26T02:08:40.744Z,98058.28
2023-02-26T02:11:07.135Z,98056.13
2023-02-26T02:13:33.540Z,98065.22
2023-02-26T02:15:59.905Z,98068.75
2023-02-26T02:18:26.359Z,98067.41
2023-02-26T02:20:52.688Z,98063.13
2023-02-26T02:23:19.047Z,98064.78
2023-02-26T02:25:45.503Z,98072.25
2023-02-26T02:28:11.811Z,98058.84
2023-02-26T02:30:38.174Z,98063.91
2023-02-26T02:33:04.685Z,98061.22
2023-02-26T02:35:31.012Z,98063.38
2023-02-26T02:37:57.401Z,98061.19
2023-02-26T02:40:23.736Z,98066.78
2023-02-26T02:42:50.074Z,98070.03
2023-02-26T02:45:16.467Z,98070.03
2023-02-26T02:47:42.820Z,98074.59
2023-02-26T02:50:09.148Z,98080.53
2023-02-26T02:52:35.575Z,98087.50
2023-02-26T02:55:01.921Z,98083.50
2023-02-26T02:57:28.486Z,98101.22
2023-02-26T02:59:54.952Z,98108.00
2023-02-26T03:02:22.272Z,98104.00
2023-02-26T03:04:48.641Z,98111.50
2023-02-26T03:07:15.009Z,98115.28
2023-02-26T03:09:41.326Z,98124.38
2023-02-26T03:12:07.692Z,98119.31
2023-02-26T03:14:34.106Z,98132.47
2023-02-26T03:17:01.853Z,98143.19
2023-02-26T03:19:29.431Z,98149.13
2023-02-26T03:21:58.604Z,98151.78
2023-02-26T03:24:42.745Z,98152.28
2023-02-26T03:27:09.180Z,98156.06
2023-02-26T03:29:37.074Z,98158.50
2023-02-26T03:32:03.444Z,98166.78
2023-02-26T03:34:29.916Z,98170.84
2023-02-26T03:36:56.241Z,98172.22
2023-02-26T03:39:26.531Z,98173.56
2023-02-26T03:41:52.948Z,98172.78
2023-02-26T03:44:19.726Z,98175.97
2023-02-26T03:46:46.567Z,98176.50
2023-02-26T03:49:12.973Z,98174.91
2023-02-26T03:51:40.213Z,98178.66
2023-02-26T03:54:25.180Z,98178.16
2023-02-26T03:57:04.763Z,98189.44
2023-02-26T03:59:57.240Z,98188.34
2023-02-26T04:02:41.278Z,98200.06
2023-02-26T04:05:13.634Z,98200.31
2023-02-26T04:07:40.160Z,98203.78
2023-02-26T04:10:06.590Z,98211.03
2023-02-26T04:12:33.037Z,98218.03
2023-02-26T04:14:59.355Z,98221.81
2023-02-26T04:17:25.796Z,98225.84
2023-02-26T04:19:52.327Z,98225.59
2023-02-26T04:22:18.803Z,98222.13
2023-02-26T04:24:45.595Z,98227.22
2023-02-26T04:27:13.865Z,98227.50
2023-02-26T04:29:40.281Z,98228.28
2023-02-26T04:32:06.723Z,98232.31
2023-02-26T04:34:33.139Z,98237.41
2023-02-26T04:36:59.472Z,98225.63
2023-02-26T04:39:26.172Z,98239.84
2023-02-26T04:41:52.710Z,98240.09
2023-02-26T04:44:19.328Z,98244.66
2023-02-26T04:46:45.706Z,98240.38
2023-02-26T04:49:12.095Z,98237.44
2023-02-26T04:51:42.260Z,98245.75
2023-02-26T04:54:08.612Z,98253.25
2023-02-26T04:56:35.152Z,98254.88
2023-02-26T04:59:02.797Z,98252.44
2023-02-26T05:01:30.291Z,98251.38
2023-02-26T05:03:57.985Z,98256.47
2023-02-26T05:06:24.628Z,98260.19
2023-02-26T05:08:51.766Z,98262.63
2023-02-26T05:11:18.579Z,98277.34
2023-02-26T05:13:46.385Z,98278.97
2023-02-26T05:16:12.829Z,98289.16
2023-02-26T05:18:39.255Z,98291.28
2023-02-26T05:21:05.715Z,98292.63
2023-02-26T05:23:32.642Z,98301.75
2023-02-26T05:25:59.040Z,98313.28
2023-02-26T05:28:25.454Z,98322.91
2023-02-26T05:30:51.992Z,98329.84
2023-02-26T05:33:19.351Z,98337.09
2023-02-26T05:35:45.668Z,98333.63
2023-02-26T05:38:12.061Z,98341.38
2023-02-26T05:40:38.462Z,98344.59
2023-02-26T05:43:04.815Z,98352.38
2023-02-26T05:45:31.131Z,98358.00
2023-02-26T05:47:57.515Z,98365.50
2023-02-26T05:50:23.853Z,98365.50
2023-02-26T05:52:50.335Z,98371.69
2023-02-26T05:55:16.768Z,98376.75
2023-02-26T05:57:43.071Z,98383.72
2023-02-26T06:00:09.451Z,98379.44
2023-02-26T06:02:41.866Z,98389.63
2023-02-26T06:05:08.269Z,98384.28
2023-02-26T06:07:34.633Z,98383.47
2023-02-26T06:10:01.082Z,98385.59
2023-02-26T06:12:27.476Z,98389.34
2023-02-26T06:14:53.903Z,98391.22
2023-02-26T06:17:20.380Z,98391.50
2023-02-26T06:19:46.715Z,98405.97
2023-02-26T06:22:13.048Z,98411.56
2023-02-26T06:24:39.424Z,98382.63
2023-02-26T06:27:05.757Z,98418.00
2023-02-26T06:29:32.085Z,98415.88
2023-02-26T06:31:58.516Z,98422.56
2023-02-26T06:34:24.894Z,98427.91
2023-02-26T06:36:51.218Z,98430.84
2023-02-26T06:39:17.564Z,98435.41
2023-02-26T06:41:43.888Z,98433.81
2023-02-26T06:44:10.203Z,98442.91
2023-02-26T06:46:36.594Z,98435.13
2023-02-26T06:49:02.930Z,98431.09
2023-02-26T06:51:29.256Z,98438.34
2023-02-26T06:53:55.620Z,98442.09
2023-02-26T06:56:24.165Z,98441.28
2023-02-26T06:58:50.666Z,98447.19
2023-02-26T07:01:17.085Z,98455.47
2023-02-26T07:03:43.450Z,98464.34
2023-02-26T07:06:26.002Z,98469.69
2023-02-26T07:08:53.203Z,98468.34
2023-02-26T07:11:19.518Z,98479.84
2023-02-26T07:13:45.844Z,98486.28
2023-02-26T07:16:12.277Z,98483.03
2023-02-26T07:18:38.583Z,98484.66
2023-02-26T07:21:04.899Z,98492.97
2023-02-26T07:23:31.274Z,98490.00
2023-02-26T07:25:57.615Z,98488.69
2023-02-26T07:28:24.027Z,98494.03
2023-02-26T07:30:50.464Z,98493.22
2023-02-26T07:33:16.842Z,98498.56
2023-02-26T07:35:43.151Z,98498.56
2023-02-26T07:38:09.521Z,98503.13
2023-02-26T07:40:35.839Z,98504.19
2023-02-26T07:43:02.291Z,98505.00
2023-02-26T07:45:28.788Z,98513.31
2023-02-26T07:47:55.106Z,98515.72
2023-02-26T07:50:21.413Z,98514.09
2023-02-26T07:52:47.779Z,98520.00
2023-02-26T07:55:14.107Z,98517.59
2023-02-26T07:57:40.423Z,98523.22
2023-02-26T08:00:08.797Z,98529.91
2023-02-26T08:02:38.461Z,98529.09
2023-02-26T08:05:04.788Z,98527.50
2023-02-26T08:07:31.157Z,98547.03
2023-02-26T08:09:57.493Z,98545.69
2023-02-26T08:12:23.811Z,98552.13
2023-02-26T08:14:50.186Z,98554.53
2023-02-26T08:17:16.501Z,98557.47
2023-02-26T08:19:42.816Z,98553.47
2023-02-26T08:22:09.201Z,98553.19
2023-02-26T08:24:35.529Z,98554.28
2023-02-26T08:27:01.845Z,98555.88
2023-02-26T08:29:28.362Z,98560.69
2023-02-26T08:31:54.858Z,98564.19
2023-02-26T08:34:21.224Z,98560.69
2023-02-26T08:36:47.754Z,98566.84
2023-02-26T08:39:14.154Z,98564.47
2023-02-26T08:41:40.498Z,98571.69
2023-02-26T08:44:06.934Z,98576.53
2023-02-26T08:46:33.351Z,98577.34
2023-02-26T08:48:59.915Z,98574.41
2023-02-26T08:51:26.752Z,98568.28
2023-02-26T08:53:53.334Z,98578.47
2023-02-26T08:56:19.701Z,98583.53
2023-02-26T08:58:46.166Z,98582.47
2023-02-26T09:01:12.489Z,98584.09
2023-02-26T09:03:38.887Z,98583.28
2023-02-26T09:06:05.315Z,98593.47
2023-02-26T09:08:31.627Z,98597.75
2023-02-26T09:10:57.922Z,98593.19
2023-02-26T09:13:25.907Z,98599.88
2023-02-26T09:15:52.293Z,98604.19
2023-02-26T09:18:18.866Z,98610.59
2023-02-26T09:20:45.345Z,98618.13
2023-02-26T09:23:11.701Z,98616.22
2023-02-26T09:25:38.042Z,98617.28
2023-02-26T09:28:04.492Z,98642.75
2023-02-26T09:30:30.889Z,98641.66
2023-02-26T09:32:57.214Z,98643.78
2023-02-26T09:35:23.637Z,98629.59
2023-02-26T09:37:49.984Z,98636.28
2023-02-26T09:40:16.293Z,98633.13
2023-02-26T09:42:42.716Z,98652.38
2023-02-26T09:45:09.041Z,98665.78
2023-02-26T09:47:35.384Z,98663.63
2023-02-26T09:50:01.948Z,98678.38
2023-02-26T09:52:28.299Z,98670.56
2023-02-26T09:54:54.634Z,98673.78
2023-02-26T09:57:21.090Z,98674.31
2023-02-26T09:59:47.697Z,98682.38
2023-02-26T10:02:14.091Z,98679.69
2023-02-26T10:04:40.539Z,98685.34
2023-02-26T10:07:06.861Z,98688.28
2023-02-26T10:09:33.162Z,98690.97
2023-02-26T10:11:59.595Z,98698.44
2023-02-26T10:14:25.926Z,98704.03
2023-02-26T10:16:52.316Z,98700.56
2023-02-26T10:19:18.754Z,98701.63
2023-02-26T10:21:45.159Z,98706.72
2023-02-26T10:24:11.510Z,98707.84
2023-02-26T10:26:37.871Z,98710.00
2023-02-26T10:29:04.204Z,98709.72
2023-02-26T10:31:30.610Z,98713.44
2023-02-26T10:33:57.032Z,98720.63
2023-02-26T10:36:23.372Z,98713.72
2023-02-26T10:38:49.681Z,98710.75
2023-02-26T10:41:16.062Z,98718.25
2023-02-26T10:43:42.440Z,98710.22
2023-02-26T10:46:08.809Z,98714.50
2023-02-26T10:48:35.212Z,98721.19
2023-02-26T10:51:01.549Z,98724.38
2023-02-26T10:53:27.934Z,98721.97
2023-02-26T10:55:54.425Z,98722.25
2023-02-26T10:58:20.799Z,98720.38
2023-02-26T11:00:47.301Z,98722.78
2023-02-26T11:03:13.752Z,98741.25
2023-02-26T11:05:40.121Z,98746.59
2023-02-26T11:08:06.504Z,98736.19
2023-02-26T11:10:32.857Z,98735.38
2023-02-26T11:12:59.174Z,98744.22
2023-02-26T11:15:25.501Z,98741.56
2023-02-26T11:17:51.905Z,98744.00
2023-02-26T11:20:18.218Z,98756.56
2023-02-26T11:22:44.549Z,98755.84
2023-02-26T11:25:10.908Z,98745.66
2023-02-26T11:27:37.239Z,98752.91
2023-02-26T11:30:03.557Z,98762.53
2023-02-26T11:32:29.984Z,98772.16
2023-02-26T11:34:56.328Z,98774.06
2023-02-26T11:37:22.731Z,98779.97
2023-02-26T11:39:49.199Z,98791.22
2023-02-26T11:42:15.576Z,98790.69
2023-02-26T11:44:41.916Z,98791.72
2023-02-26T11:47:08.515Z,98797.09
2023-02-26T11:49:34.832Z,98810.53
2023-02-26T11:52:01.136Z,98810.06
2023-02-26T11:54:27.507Z,98818.09
2023-02-26T11:56:53.819Z,98812.72
2023-02-26T11:59:20.134Z,98813.81
2023-02-26T12:01:46.509Z,98817.31
2023-02-26T12:04:12.815Z,98817.81
2023-02-26T12:06:39.129Z,98821.84
2023-02-26T12:09:05.495Z,98822.94
2023-02-26T12:11:31.981Z,98831.81
2023-02-26T12:13:58.326Z,98827.81
2023-02-26T12:16:24.720Z,98824.38
2023-02-26T12:18:51.114Z,98825.97
2023-02-26T12:21:17.476Z,98831.06
2023-02-26T12:23:43.852Z,98833.75
2023-02-26T12:26:10.161Z,98835.88
2023-02-26T12:28:36.490Z,98839.09
2023-02-26T12:31:02.929Z,98844.75
2023-02-26T12:33:29.333Z,98843.38
2023-02-26T12:35:55.688Z,98849.53
2023-02-26T12:38:22.101Z,98853.03
2023-02-26T12:40:48.456Z,98849.78
2023-02-26T12:43:14.787Z,98848.19
2023-02-26T12:45:41.137Z,98849.78
2023-02-26T12:48:07.487Z,98852.75
2023-02-26T12:50:33.815Z,98865.84
2023-02-26T12:53:00.199Z,98864.25
2023-02-26T12:55:26.510Z,98864.56
2023-02-26T12:57:52.822Z,98866.38
2023-02-26T13:00:19.189Z,98877.16
2023-02-26T13:02:45.542Z,98881.16
2023-02-26T13:05:11.877Z,98873.38
2023-02-26T13:07:38.245Z,98885.41
2023-02-26T13:10:04.609Z,98891.63
2023-02-26T13:12:30.912Z,98890.03
2023-02-26T13:14:57.282Z,98897.00
2023-02-26T13:17:23.646Z,98893.50
2023-02-26T13:19:49.969Z,98894.81
2023-02-26T13:22:16.337Z,98908.69
2023-02-26T13:24:42.663Z,98904.41
2023-02-26T13:27:08.978Z,98907.09
2023-02-26T13:29:35.485Z,98921.63
2023-02-26T13:32:01.956Z,98915.72
2023-02-26T13:34:28.336Z,98915.13
2023-02-26T13:36:54.750Z,98916.97
2023-02-26T13:39:21.100Z,98927.78
2023-02-26T13:41:47.518Z,98927.28
2023-02-26T13:44:14.029Z,98935.31
2023-02-26T13:46:40.389Z,98947.91
2023-02-26T13:49:06.767Z,98945.25
2023-02-26T13:51:33.164Z,98952.78
2023-02-26T13:53:59.593Z,98958.38
2023-02-26T13:56:25.954Z,98954.31
2023-02-26T13:58:52.340Z,98949.22
2023-02-26T14:01:18.817Z,98952.72
2023-02-26T14:03:45.166Z,98951.91
2023-02-26T14:06:11.576Z,98943.06
2023-02-26T14:08:37.956Z,98943.06
2023-02-26T14:11:04.255Z,98933.66
2023-02-26T14:13:30.626Z,98930.97
2023-02-26T14:15:56.945Z,98935.50
2023-02-26T14:18:23.295Z,98935.50
2023-02-26T14:20:49.713Z,98944.34
2023-02-26T14:23:16.064Z,98914.69
2023-02-26T14:25:42.374Z,98957.44
2023-02-26T14:28:08.743Z,98958.50
2023-02-26T14:30:35.144Z,98956.06
2023-02-26T14:33:01.531Z,98971.34
2023-02-26T14:35:27.972Z,98982.06
2023-02-26T14:37:54.351Z,98984.25
2023-02-26T14:40:20.695Z,98993.34
2023-02-26T14:42:47.087Z,99000.03
2023-02-26T14:45:13.458Z,99004.31
2023-02-26T14:47:39.796Z,98996.84
2023-02-26T14:50:06.207Z,98996.56
2023-02-26T14:52:32.522Z,98988.53
2023-02-26T14:54:58.832Z,98992.84
2023-02-26T14:57:25.197Z,98992.63
2023-02-26T14:59:51.589Z,98992.94
2023-02-26T15:02:18.029Z,98994.00
2023-02-26T15:04:44.487Z,99002.56
2023-02-26T15:07:10.815Z,99009.81
2023-02-26T15:09:37.124Z,99013.28
2023-02-26T15:12:03.510Z,99009.78
2023-02-26T15:14:29.839Z,99018.28
2023-02-26T15:16:56.165Z,99014.53
2023-02-26T15:19:22.524Z,99018.28
2023-02-26T15:21:48.843Z,99022.84
2023-02-26T15:24:15.153Z,99023.06
2023-02-26T15:26:41.510Z,99025.44
2023-02-26T15:29:07.927Z,99031.38
2023-02-26T15:31:34.334Z,99034.28
2023-02-26T15:34:00.781Z,99030.00
2023-02-26T15:36:27.281Z,99033.72
2023-02-26T15:38:53.762Z,99039.34
2023-02-26T15:41:20.115Z,99035.03
2023-02-26T15:43:46.449Z,99037.19
2023-02-26T15:46:12.800Z,99037.41
2023-02-26T15:48:39.180Z,99045.72
2023-02-26T15:51:05.748Z,99043.28
2023-02-26T15:53:32.059Z,99048.91
2023-02-26T15:55:58.429Z,99052.88
2023-02-26T15:58:24.737Z,99057.44
2023-02-26T16:00:51.046Z,99060.34
2023-02-26T16:03:17.473Z,99075.69
2023-02-26T16:05:43.822Z,99078.88
2023-02-26T16:08:10.135Z,99077.81
2023-02-26T16:10:36.482Z,99079.88
2023-02-26T16:13:02.813Z,99080.91
2023-02-26T16:15:29.125Z,99083.56
2023-02-26T16:17:55.475Z,99091.59
2023-02-26T16:20:21.791Z,99083.00
2023-02-26T16:22:48.119Z,99076.56
2023-02-26T16:25:14.477Z,99071.69
2023-02-26T16:27:40.812Z,99081.03
2023-02-26T16:30:07.152Z,99085.59
2023-02-26T16:32:33.716Z,99085.84
2023-02-26T16:35:00.191Z,99097.59
2023-02-26T16:37:26.517Z,99095.19
2023-02-26T16:39:52.958Z,99105.34
2023-02-26T16:42:19.283Z,99106.13
2023-02-26T16:44:45.599Z,99114.75
2023-02-26T16:47:11.953Z,99119.34
2023-02-26T16:49:38.288Z,99122.59
2023-02-26T16:52:04.609Z,99125.53
2023-02-26T16:54:30.989Z,99132.72
2023-02-26T16:56:57.339Z,99137.53
2023-02-26T16:59:23.679Z,99130.81
2023-02-26T17:01:50.064Z,99141.44
2023-02-26T17:04:16.479Z,99141.94
2023-02-26T17:06:42.820Z,99153.72
2023-02-26T17:09:09.233Z,99153.16
2023-02-26T17:11:35.607Z,99156.88
2023-02-26T17:14:01.937Z,99152.84
2023-02-26T17:16:28.333Z,99160.28
2023-02-26T17:18:54.672Z,99174.72
2023-02-26T17:21:21.011Z,99176.00
2023-02-26T17:23:47.388Z,99193.94
2023-02-26T17:26:13.713Z,99185.09
2023-02-26T17:28:40.035Z,99192.31
2023-02-26T17:31:06.480Z,99191.25
2023-02-26T17:33:32.849Z,99183.47
2023-02-26T17:35:59.181Z,99196.31
2023-02-26T17:38:25.526Z,99192.25
2023-02-26T17:40:51.863Z,99191.19
2023-02-26T17:43:18.183Z,99202.69
2023-02-26T17:45:44.567Z,99192.25
2023-02-26T17:48:10.908Z,99189.81
2023-02-26T17:50:37.232Z,99204.81
2023-02-26T17:53:03.626Z,99190.88
2023-02-26T17:55:30.059Z,99193.28
2023-02-26T17:57:56.464Z,99192.25
2023-02-26T18:00:22.837Z,99198.16
2023-02-26T18:02:49.317Z,99211.53
2023-02-26T18:05:15.651Z,99199.78
2023-02-26T18:07:42.026Z,99213.97
2023-02-26T18:10:08.330Z,99214.78
2023-02-26T18:12:34.647Z,99222.81
2023-02-26T18:15:01.000Z,99219.06
2023-02-26T18:17:27.311Z,99223.63
2023-02-26T18:19:53.665Z,99228.16
2023-02-26T18:22:20.077Z,99234.59
2023-02-26T18:24:46.408Z,99233.03
2023-02-26T18:27:12.732Z,99238.38
2023-02-26T18:29:39.085Z,99238.38
2023-02-26T18:32:05.591Z,99238.38
2023-02-26T18:34:32.042Z,99228.75
2023-02-26T18:36:58.406Z,99238.66
2023-02-26T18:39:24.737Z,99249.00
2023-02-26T18:41:51.058Z,99247.66
2023-02-26T18:44:17.436Z,99253.25
2023-02-26T18:46:43.752Z,99255.34
2023-02-26T18:49:10.095Z,99264.44
2023-02-26T18:51:36.478Z,99268.97
2023-02-26T18:54:02.797Z,99273.53
2023-02-26T18:56:29.133Z,99286.91
2023-02-26T18:58:55.498Z,99293.28
2023-02-26T19:01:21.984Z,99291.69
2023-02-26T19:03:48.346Z,99286.31
2023-02-26T19:06:14.749Z,99284.72
2023-02-26T19:08:41.052Z,99280.41
2023-02-26T19:11:07.412Z,99281.47
2023-02-26T19:13:34.624Z,99278.78
2023-02-26T19:16:01.016Z,99287.63
2023-02-26T19:18:27.409Z,99275.03
2023-02-26T19:20:53.783Z,99274.22
2023-02-26T19:23:20.085Z,99281.47
2023-02-26T19:25:46.419Z,99288.91
2023-02-26T19:28:12.895Z,99287.28
2023-02-26T19:30:39.251Z,99288.34
2023-02-26T19:33:05.571Z,99293.94
2023-02-26T19:35:31.952Z,99297.66
2023-02-26T19:37:58.271Z,99291.97
2023-02-26T19:40:24.614Z,99304.53
2023-02-26T19:42:51.023Z,99306.66
2023-02-26T19:45:17.347Z,99314.91
2023-02-26T19:47:43.692Z,99315.97
2023-02-26T19:50:10.149Z,99323.41
2023-02-26T19:52:36.493Z,99326.91
2023-02-26T19:55:02.837Z,99321.56
2023-02-26T19:57:29.196Z,99331.72
2023-02-26T19:59:55.517Z,99327.16
2023-02-26T20:02:21.867Z,99330.88
2023-02-26T20:04:48.213Z,99335.41
2023-02-26T20:07:14.529Z,99325.19
2023-02-26T20:09:40.841Z,99330.53
2023-02-26T20:12:07.201Z,99336.16
2023-02-26T20:14:33.537Z,99332.63
2023-02-26T20:16:59.863Z,99337.19
2023-02-26T20:19:26.223Z,99331.81
2023-02-26T20:21:52.536Z,99341.13
2023-02-26T20:24:18.856Z,99348.13
2023-02-26T20:26:45.259Z,99334.97
2023-02-26T20:29:11.557Z,99343.00
2023-02-26T20:31:37.948Z,99345.69
2023-02-26T20:34:04.406Z,99338.94
2023-02-26T20:36:30.712Z,99352.31
2023-02-26T20:38:57.046Z,99350.38
2023-02-26T20:41:23.405Z,99355.38
2023-02-26T20:43:49.711Z,99348.38
2023-02-26T20:46:16.067Z,99353.50
2023-02-26T20:48:42.457Z,99356.41
2023-02-26T20:51:08.790Z,99365.50
2023-02-26T20:53:35.121Z,99345.63
2023-02-26T20:56:01.712Z,99363.88
2023-02-26T20:58:28.091Z,99357.69
2023-02-26T21:00:54.458Z,99363.03
2023-02-26T21:03:20.839Z,99360.63
2023-02-26T21:05:47.161Z,99366.78
2023-02-26T21:08:13.508Z,99376.66
2023-02-26T21:10:39.994Z,99374.22
2023-02-26T21:13:06.310Z,99379.22
2023-02-26T21:15:32.637Z,99380.03
2023-02-26T21:17:58.997Z,99375.84
2023-02-26T21:20:25.353Z,99377.47
2023-02-26T21:22:51.702Z,99391.44
2023-02-26T21:25:18.114Z,99386.78
2023-02-26T21:27:44.442Z,99392.38
2023-02-26T21:30:10.751Z,99382.25
2023-02-26T21:32:37.165Z,99387.94
2023-02-26T21:35:03.577Z,99395.72
2023-02-26T21:37:29.906Z,99393.84
2023-02-26T21:39:56.268Z,99399.53
2023-02-26T21:42:22.658Z,99402.00
2023-02-26T21:44:49.666Z,99392.56
2023-02-26T21:47:16.117Z,99402.00
2023-02-26T21:49:42.444Z,99393.97
2023-02-26T21:52:08.796Z,99393.16
2023-02-26T21:54:35.216Z,99396.44
2023-02-26T21:57:01.556Z,99400.94
2023-02-26T21:59:27.879Z,99401.19
2023-02-26T22:01:54.275Z,99404.81
2023-02-26T22:04:20.619Z,99414.44
2023-02-26T22:06:46.959Z,99416.06
2023-02-26T22:09:13.325Z,99412.59
2023-02-26T22:11:39.717Z,99411.19
2023-02-26T22:14:06.044Z,99412.25
2023-02-26T22:16:32.569Z,99416.09
2023-02-26T22:18:58.966Z,99419.59
2023-02-26T22:21:25.679Z,99413.31
2023-02-26T22:23:52.225Z,99423.53
2023-02-26T22:26:18.543Z,99428.97
2023-02-26T22:28:44.863Z,99430.03
2023-02-26T22:31:11.279Z,99430.28
2023-02-26T22:33:37.641Z,99425.16
2023-02-26T22:36:03.991Z,99438.31
2023-02-26T22:38:30.358Z,99446.06
2023-02-26T22:40:56.684Z,99441.53
2023-02-26T22:43:23.021Z,99444.22
2023-02-26T22:45:49.496Z,99442.81
2023-02-26T22:48:15.886Z,99442.59
2023-02-26T22:50:42.204Z,99442.72
2023-02-26T22:53:08.584Z,99442.72
2023-02-26T22:55:34.915Z,99453.31
2023-02-26T22:58:01.223Z,99453.91
2023-02-26T23:00:27.618Z,99453.31
2023-02-26T23:02:53.929Z,99451.09
2023-02-26T23:05:20.249Z,99452.84
2023-02-26T23:07:46.640Z,99457.13
2023-02-26T23:10:12.963Z,99459.13
2023-02-26T23:12:39.404Z,99453.66
2023-02-26T23:15:05.798Z,99457.59
2023-02-26T23:17:32.109Z,99458.78
2023-02-26T23:19:58.432Z,99460.66
2023-02-26T23:22:24.790Z,99465.88
2023-02-26T23:24:51.100Z,99463.41
2023-02-26T23:27:17.423Z,99469.22
2023-02-26T23:29:43.803Z,99467.25
2023-02-26T23:32:10.227Z,99458.44
2023-02-26T23:34:36.653Z,99468.06
2023-02-26T23:37:02.995Z,99461.91
2023-02-26T23:39:29.290Z,99464.59
2023-02-26T23:41:55.665Z,99461.09
2023-02-26T23:44:22.008Z,99468.88
2023-02-26T23:46:48.341Z,99462.94
2023-02-26T23:49:14.664Z,99466.66
2023-02-26T23:51:41.031Z,99468.75
2023-02-26T23:54:07.344Z,99474.34
2023-02-26T23:56:33.663Z,99474.00
2023-02-26T23:59:00.019Z,99476.22
